sensor_id;sensor_type;location;lat;lon;timestamp;temperature;humidity
46730;DHT22;32476;50.002;11.854;2023-03-04T00:00:01;-4.50;99.90
46730;DHT22;32476;50.002;11.854;2023-03-04T00:02:29;-4.50;99.90
46730;DHT22;32476;50.002;11.854;2023-03-04T00:04:55;-4.60;99.90
46730;DHT22;32476;50.002;11.854;2023-03-04T00:07:21;-4.60;99.90
46730;DHT22;32476;50.002;11.854;2023-03-04T00:09:48;-4.60;99.90
46730;DHT22;32476;50.002;11.854;2023-03-04T00:12:14;-4.60;99.90
46730;DHT22;32476;50.002;11.854;2023-03-04T00:14:40;-4.70;99.90
46730;DHT22;32476;50.002;11.854;2023-03-04T00:17:08;-4.70;99.90
46730;DHT22;32476;50.002;11.854;2023-03-04T00:19:34;-4.70;99.90
46730;DHT22;32476;50.002;11.854;2023-03-04T00:22:00;-4.70;99.90
46730;DHT22;32476;50.002;11.854;2023-03-04T00:24:28;-4.70;99.90
46730;DHT22;32476;50.002;11.854;2023-03-04T00:26:54;-4.70;99.90
46730;DHT22;32476;50.002;11.854;2023-03-04T00:29:20;-4.70;99.90
46730;DHT22;32476;50.002;11.854;2023-03-04T00:31:48;-4.80;99.90
46730;DHT22;32476;50.002;11.854;2023-03-04T00:34:14;-4.80;99.90
46730;DHT22;32476;50.002;11.854;2023-03-04T00:36:40;-4.80;99.90
46730;DHT22;32476;50.002;11.854;2023-03-04T00:39:11;-4.80;99.90
46730;DHT22;32476;50.002;11.854;2023-03-04T00:41:37;-4.80;99.90
46730;DHT22;32476;50.002;11.854;2023-03-04T00:44:04;-4.80;99.90
46730;DHT22;32476;50.002;11.854;2023-03-04T00:46:32;-4.90;99.90
46730;DHT22;32476;50.002;11.854;2023-03-04T00:48:58;-4.80;99.90
46730;DHT22;32476;50.002;11.854;2023-03-04T00:51:23;-4.80;99.90
46730;DHT22;32476;50.002;11.854;2023-03-04T00:53:51;-4.90;99.90
46730;DHT22;32476;50.002;11.854;2023-03-04T00:56:17;-4.90;99.90
46730;DHT22;32476;50.002;11.854;2023-03-04T00:58:43;-5.00;99.90
46730;DHT22;32476;50.002;11.854;2023-03-04T01:01:10;-5.00;99.90
46730;DHT22;32476;50.002;11.854;2023-03-04T01:03:36;-5.00;99.90
46730;DHT22;32476;50.002;11.854;2023-03-04T01:06:06;-4.90;99.90
46730;DHT22;32476;50.002;11.854;2023-03-04T01:08:33;-4.90;99.90
46730;DHT22;32476;50.002;11.854;2023-03-04T01:10:59;-4.90;99.90
46730;DHT22;32476;50.002;11.854;2023-03-04T01:13:25;-4.90;99.90
46730;DHT22;32476;50.002;11.854;2023-03-04T01:15:52;-4.90;99.90
46730;DHT22;32476;50.002;11.854;2023-03-04T01:18:18;-5.00;99.90
46730;DHT22;32476;50.002;11.854;2023-03-04T01:20:44;-5.00;99.90
46730;DHT22;32476;50.002;11.854;2023-03-04T01:23:12;-5.10;99.90
46730;DHT22;32476;50.002;11.854;2023-03-04T01:25:38;-5.10;99.90
46730;DHT22;32476;50.002;11.854;2023-03-04T01:28:04;-5.20;99.90
46730;DHT22;32476;50.002;11.854;2023-03-04T01:30:31;-5.20;99.90
46730;DHT22;32476;50.002;11.854;2023-03-04T01:32:57;-5.30;99.90
46730;DHT22;32476;50.002;11.854;2023-03-04T01:35:23;-5.30;99.90
46730;DHT22;32476;50.002;11.854;2023-03-04T01:37:51;-5.30;99.90
46730;DHT22;32476;50.002;11.854;2023-03-04T01:40:17;-5.30;99.90
46730;DHT22;32476;50.002;11.854;2023-03-04T01:42:43;-5.30;99.90
46730;DHT22;32476;50.002;11.854;2023-03-04T01:45:13;-5.30;99.90
46730;DHT22;32476;50.002;11.854;2023-03-04T01:47:41;-5.30;99.90
46730;DHT22;32476;50.002;11.854;2023-03-04T01:50:34;-5.30;99.90
46730;DHT22;32476;50.002;11.854;2023-03-04T01:53:01;-5.30;99.90
46730;DHT22;32476;50.002;11.854;2023-03-04T01:55:30;-5.30;99.90
46730;DHT22;32476;50.002;11.854;2023-03-04T01:57:56;-5.30;99.90
46730;DHT22;32476;50.002;11.854;2023-03-04T02:00:27;-5.30;99.90
46730;DHT22;32476;50.002;11.854;2023-03-04T02:03:01;-5.40;99.90
46730;DHT22;32476;50.002;11.854;2023-03-04T02:05:31;-5.40;99.90
46730;DHT22;32476;50.002;11.854;2023-03-04T02:07:59;-5.40;99.90
46730;DHT22;32476;50.002;11.854;2023-03-04T02:10:26;-5.40;99.90
46730;DHT22;32476;50.002;11.854;2023-03-04T02:12:53;-5.40;99.90
46730;DHT22;32476;50.002;11.854;2023-03-04T02:15:22;-5.40;99.90
46730;DHT22;32476;50.002;11.854;2023-03-04T02:17:48;-5.40;99.90
46730;DHT22;32476;50.002;11.854;2023-03-04T02:20:32;-5.40;99.90
46730;DHT22;32476;50.002;11.854;2023-03-04T02:26:25;-5.40;99.90
46730;DHT22;32476;50.002;11.854;2023-03-04T02:28:55;-5.40;99.90
46730;DHT22;32476;50.002;11.854;2023-03-04T02:31:24;-5.50;99.90
46730;DHT22;32476;50.002;11.854;2023-03-04T02:33:54;-5.50;99.90
46730;DHT22;32476;50.002;11.854;2023-03-04T02:36:23;-5.50;99.90
46730;DHT22;32476;50.002;11.854;2023-03-04T02:38:51;-5.50;99.90
46730;DHT22;32476;50.002;11.854;2023-03-04T02:41:23;-5.50;99.90
46730;DHT22;32476;50.002;11.854;2023-03-04T02:43:53;-5.60;99.90
46730;DHT22;32476;50.002;11.854;2023-03-04T02:46:20;-5.60;99.90
46730;DHT22;32476;50.002;11.854;2023-03-04T02:48:46;-5.60;99.90
46730;DHT22;32476;50.002;11.854;2023-03-04T02:51:13;-5.60;99.90
46730;DHT22;32476;50.002;11.854;2023-03-04T02:53:39;-5.60;99.90
46730;DHT22;32476;50.002;11.854;2023-03-04T02:56:05;-5.60;99.90
46730;DHT22;32476;50.002;11.854;2023-03-04T02:58:33;-5.70;99.90
46730;DHT22;32476;50.002;11.854;2023-03-04T03:01:00;-5.70;99.90
46730;DHT22;32476;50.002;11.854;2023-03-04T03:03:26;-5.70;99.90
46730;DHT22;32476;50.002;11.854;2023-03-04T03:05:53;-5.80;99.90
46730;DHT22;32476;50.002;11.854;2023-03-04T03:08:19;-5.80;99.90
46730;DHT22;32476;50.002;11.854;2023-03-04T03:10:47;-5.80;99.90
46730;DHT22;32476;50.002;11.854;2023-03-04T03:13:14;-5.80;99.90
46730;DHT22;32476;50.002;11.854;2023-03-04T03:15:47;-5.90;99.90
46730;DHT22;32476;50.002;11.854;2023-03-04T03:18:14;-5.90;99.90
46730;DHT22;32476;50.002;11.854;2023-03-04T03:20:40;-5.90;99.90
46730;DHT22;32476;50.002;11.854;2023-03-04T03:23:06;-6.00;99.90
46730;DHT22;32476;50.002;11.854;2023-03-04T03:25:34;-6.00;99.90
46730;DHT22;32476;50.002;11.854;2023-03-04T03:28:00;-6.00;99.90
46730;DHT22;32476;50.002;11.854;2023-03-04T03:30:26;-6.00;99.90
46730;DHT22;32476;50.002;11.854;2023-03-04T03:32:53;-6.10;99.90
46730;DHT22;32476;50.002;11.854;2023-03-04T03:35:20;-6.10;99.90
46730;DHT22;32476;50.002;11.854;2023-03-04T03:37:46;-6.10;99.90
46730;DHT22;32476;50.002;11.854;2023-03-04T03:40:15;-6.20;99.90
46730;DHT22;32476;50.002;11.854;2023-03-04T03:42:41;-6.20;99.90
46730;DHT22;32476;50.002;11.854;2023-03-04T03:45:07;-6.20;99.90
46730;DHT22;32476;50.002;11.854;2023-03-04T03:47:35;-6.20;99.90
46730;DHT22;32476;50.002;11.854;2023-03-04T03:50:01;-6.20;99.90
46730;DHT22;32476;50.002;11.854;2023-03-04T03:52:27;-6.30;99.90
46730;DHT22;32476;50.002;11.854;2023-03-04T03:54:54;-6.30;99.90
46730;DHT22;32476;50.002;11.854;2023-03-04T03:57:20;-6.30;99.90
46730;DHT22;32476;50.002;11.854;2023-03-04T03:59:46;-6.40;99.90
46730;DHT22;32476;50.002;11.854;2023-03-04T04:02:13;-6.50;99.90
46730;DHT22;32476;50.002;11.854;2023-03-04T04:04:39;-6.50;99.90
46730;DHT22;32476;50.002;11.854;2023-03-04T04:07:05;-6.50;99.90
46730;DHT22;32476;50.002;11.854;2023-03-04T04:09:33;-6.50;99.90
46730;DHT22;32476;50.002;11.854;2023-03-04T04:11:58;-6.60;99.90
46730;DHT22;32476;50.002;11.854;2023-03-04T04:14:24;-6.60;99.90
46730;DHT22;32476;50.002;11.854;2023-03-04T04:16:52;-6.60;99.90
46730;DHT22;32476;50.002;11.854;2023-03-04T04:19:19;-6.60;99.90
46730;DHT22;32476;50.002;11.854;2023-03-04T04:21:45;-6.50;99.90
46730;DHT22;32476;50.002;11.854;2023-03-04T04:24:13;-6.60;99.90
46730;DHT22;32476;50.002;11.854;2023-03-04T04:26:39;-6.70;99.90
46730;DHT22;32476;50.002;11.854;2023-03-04T04:29:05;-6.70;99.90
46730;DHT22;32476;50.002;11.854;2023-03-04T04:31:33;-6.60;99.90
46730;DHT22;32476;50.002;11.854;2023-03-04T04:34:00;-6.60;99.90
46730;DHT22;32476;50.002;11.854;2023-03-04T04:36:26;-6.60;99.90
46730;DHT22;32476;50.002;11.854;2023-03-04T04:38:53;-6.60;99.90
46730;DHT22;32476;50.002;11.854;2023-03-04T04:41:22;-6.50;99.90
46730;DHT22;32476;50.002;11.854;2023-03-04T04:43:50;-6.40;99.90
46730;DHT22;32476;50.002;11.854;2023-03-04T04:46:17;-6.40;99.90
46730;DHT22;32476;50.002;11.854;2023-03-04T04:48:44;-6.30;99.90
46730;DHT22;32476;50.002;11.854;2023-03-04T04:51:10;-6.20;99.90
46730;DHT22;32476;50.002;11.854;2023-03-04T04:53:38;-6.20;99.90
46730;DHT22;32476;50.002;11.854;2023-03-04T04:56:15;-6.20;99.90
46730;DHT22;32476;50.002;11.854;2023-03-04T04:58:45;-6.10;99.90
46730;DHT22;32476;50.002;11.854;2023-03-04T05:01:12;-6.10;99.90
46730;DHT22;32476;50.002;11.854;2023-03-04T05:03:39;-6.10;99.90
46730;DHT22;32476;50.002;11.854;2023-03-04T05:06:08;-6.00;99.90
46730;DHT22;32476;50.002;11.854;2023-03-04T05:08:35;-5.90;99.90
46730;DHT22;32476;50.002;11.854;2023-03-04T05:11:02;-5.90;99.90
46730;DHT22;32476;50.002;11.854;2023-03-04T05:13:30;-5.70;99.90
46730;DHT22;32476;50.002;11.854;2023-03-04T05:15:56;-5.60;99.90
46730;DHT22;32476;50.002;11.854;2023-03-04T05:18:24;-5.60;99.90
46730;DHT22;32476;50.002;11.854;2023-03-04T05:21:03;-5.60;99.90
46730;DHT22;32476;50.002;11.854;2023-03-04T05:23:32;-5.40;99.90
46730;DHT22;32476;50.002;11.854;2023-03-04T05:26:02;-5.30;99.90
46730;DHT22;32476;50.002;11.854;2023-03-04T05:28:29;-5.40;99.90
46730;DHT22;32476;50.002;11.854;2023-03-04T05:30:55;-5.20;99.90
46730;DHT22;32476;50.002;11.854;2023-03-04T05:33:22;-5.10;99.90
46730;DHT22;32476;50.002;11.854;2023-03-04T05:35:49;-5.10;99.90
46730;DHT22;32476;50.002;11.854;2023-03-04T05:38:16;-4.90;99.90
46730;DHT22;32476;50.002;11.854;2023-03-04T05:40:46;-4.80;99.90
46730;DHT22;32476;50.002;11.854;2023-03-04T05:43:13;-4.80;99.90
46730;DHT22;32476;50.002;11.854;2023-03-04T05:45:39;-4.60;99.90
46730;DHT22;32476;50.002;11.854;2023-03-04T05:48:08;-4.50;99.90
46730;DHT22;32476;50.002;11.854;2023-03-04T05:50:34;-4.50;99.90
46730;DHT22;32476;50.002;11.854;2023-03-04T05:53:01;-4.50;99.90
46730;DHT22;32476;50.002;11.854;2023-03-04T05:55:28;-4.50;99.90
46730;DHT22;32476;50.002;11.854;2023-03-04T05:57:55;-4.40;99.90
46730;DHT22;32476;50.002;11.854;2023-03-04T06:00:21;-4.30;99.90
46730;DHT22;32476;50.002;11.854;2023-03-04T06:02:49;-4.30;99.90
46730;DHT22;32476;50.002;11.854;2023-03-04T06:05:16;-4.20;99.90
46730;DHT22;32476;50.002;11.854;2023-03-04T06:07:42;-4.30;99.90
46730;DHT22;32476;50.002;11.854;2023-03-04T06:10:13;-4.20;99.90
46730;DHT22;32476;50.002;11.854;2023-03-04T06:12:39;-4.20;99.90
46730;DHT22;32476;50.002;11.854;2023-03-04T06:15:06;-4.10;99.90
46730;DHT22;32476;50.002;11.854;2023-03-04T06:17:37;-4.10;99.90
46730;DHT22;32476;50.002;11.854;2023-03-04T06:20:04;-4.00;99.90
46730;DHT22;32476;50.002;11.854;2023-03-04T06:22:32;-4.00;99.90
46730;DHT22;32476;50.002;11.854;2023-03-04T06:25:00;-4.00;99.90
46730;DHT22;32476;50.002;11.854;2023-03-04T06:27:26;-4.00;99.90
46730;DHT22;32476;50.002;11.854;2023-03-04T06:29:52;-3.90;99.90
46730;DHT22;32476;50.002;11.854;2023-03-04T06:32:21;-3.90;99.90
46730;DHT22;32476;50.002;11.854;2023-03-04T06:34:46;-3.90;99.90
46730;DHT22;32476;50.002;11.854;2023-03-04T06:37:12;-3.80;99.90
46730;DHT22;32476;50.002;11.854;2023-03-04T06:39:40;-3.80;99.90
46730;DHT22;32476;50.002;11.854;2023-03-04T06:42:06;-3.70;99.90
46730;DHT22;32476;50.002;11.854;2023-03-04T06:44:31;-3.70;99.90
46730;DHT22;32476;50.002;11.854;2023-03-04T06:46:59;-3.60;99.90
46730;DHT22;32476;50.002;11.854;2023-03-04T06:49:25;-3.60;99.90
46730;DHT22;32476;50.002;11.854;2023-03-04T06:51:51;-3.50;99.90
46730;DHT22;32476;50.002;11.854;2023-03-04T06:54:19;-3.40;99.90
46730;DHT22;32476;50.002;11.854;2023-03-04T06:56:45;-3.30;99.90
46730;DHT22;32476;50.002;11.854;2023-03-04T06:59:11;-3.30;99.90
46730;DHT22;32476;50.002;11.854;2023-03-04T07:01:38;-3.30;99.90
46730;DHT22;32476;50.002;11.854;2023-03-04T07:04:04;-3.20;99.90
46730;DHT22;32476;50.002;11.854;2023-03-04T07:06:30;-3.20;99.90
46730;DHT22;32476;50.002;11.854;2023-03-04T07:08:58;-3.20;99.90
46730;DHT22;32476;50.002;11.854;2023-03-04T07:11:24;-3.10;99.90
46730;DHT22;32476;50.002;11.854;2023-03-04T07:13:50;-3.10;99.90
46730;DHT22;32476;50.002;11.854;2023-03-04T07:16:20;-3.00;99.90
46730;DHT22;32476;50.002;11.854;2023-03-04T07:18:48;-3.00;99.90
46730;DHT22;32476;50.002;11.854;2023-03-04T07:21:14;-2.90;99.90
46730;DHT22;32476;50.002;11.854;2023-03-04T07:23:42;-2.90;99.90
46730;DHT22;32476;50.002;11.854;2023-03-04T07:26:08;-2.80;99.90
46730;DHT22;32476;50.002;11.854;2023-03-04T07:28:35;-2.80;99.90
46730;DHT22;32476;50.002;11.854;2023-03-04T07:31:20;-2.80;99.90
46730;DHT22;32476;50.002;11.854;2023-03-04T07:33:59;-2.70;99.90
46730;DHT22;32476;50.002;11.854;2023-03-04T07:36:34;-2.60;99.90
46730;DHT22;32476;50.002;11.854;2023-03-04T07:39:00;-2.70;99.90
46730;DHT22;32476;50.002;11.854;2023-03-04T07:41:27;-2.70;99.90
46730;DHT22;32476;50.002;11.854;2023-03-04T07:43:56;-2.50;99.90
46730;DHT22;32476;50.002;11.854;2023-03-04T07:46:23;-2.50;99.90
46730;DHT22;32476;50.002;11.854;2023-03-04T07:48:49;-2.50;99.90
46730;DHT22;32476;50.002;11.854;2023-03-04T07:51:19;-2.40;99.90
46730;DHT22;32476;50.002;11.854;2023-03-04T07:53:49;-2.30;99.90
46730;DHT22;32476;50.002;11.854;2023-03-04T07:56:22;-2.30;99.90
46730;DHT22;32476;50.002;11.854;2023-03-04T07:58:49;-2.20;99.90
46730;DHT22;32476;50.002;11.854;2023-03-04T08:01:22;-2.20;99.90
46730;DHT22;32476;50.002;11.854;2023-03-04T08:03:53;-2.20;99.90
46730;DHT22;32476;50.002;11.854;2023-03-04T08:06:21;-2.20;99.90
46730;DHT22;32476;50.002;11.854;2023-03-04T08:08:48;-2.20;99.90
46730;DHT22;32476;50.002;11.854;2023-03-04T08:11:18;-2.10;99.90
46730;DHT22;32476;50.002;11.854;2023-03-04T08:13:47;-2.00;99.90
46730;DHT22;32476;50.002;11.854;2023-03-04T08:16:18;-2.00;99.90
46730;DHT22;32476;50.002;11.854;2023-03-04T08:18:46;-2.00;99.90
46730;DHT22;32476;50.002;11.854;2023-03-04T08:21:16;-2.00;99.90
46730;DHT22;32476;50.002;11.854;2023-03-04T08:23:44;-2.10;99.90
46730;DHT22;32476;50.002;11.854;2023-03-04T08:26:14;-2.10;99.90
46730;DHT22;32476;50.002;11.854;2023-03-04T08:28:43;-2.10;99.90
46730;DHT22;32476;50.002;11.854;2023-03-04T08:31:12;-2.00;99.90
46730;DHT22;32476;50.002;11.854;2023-03-04T08:33:39;-2.00;99.90
46730;DHT22;32476;50.002;11.854;2023-03-04T08:36:07;-2.00;99.90
46730;DHT22;32476;50.002;11.854;2023-03-04T08:38:33;-2.00;99.90
46730;DHT22;32476;50.002;11.854;2023-03-04T08:41:00;-2.10;99.90
46730;DHT22;32476;50.002;11.854;2023-03-04T08:43:30;-1.80;99.90
46730;DHT22;32476;50.002;11.854;2023-03-04T08:45:57;-1.80;99.90
46730;DHT22;32476;50.002;11.854;2023-03-04T08:48:23;-1.70;99.90
46730;DHT22;32476;50.002;11.854;2023-03-04T08:50:51;-1.80;99.90
46730;DHT22;32476;50.002;11.854;2023-03-04T08:53:18;-1.80;99.90
46730;DHT22;32476;50.002;11.854;2023-03-04T08:55:45;-1.70;99.90
46730;DHT22;32476;50.002;11.854;2023-03-04T08:58:16;-1.90;99.90
46730;DHT22;32476;50.002;11.854;2023-03-04T09:00:47;-1.90;99.90
46730;DHT22;32476;50.002;11.854;2023-03-04T09:03:16;-2.10;99.90
46730;DHT22;32476;50.002;11.854;2023-03-04T09:05:45;-1.90;99.90
46730;DHT22;32476;50.002;11.854;2023-03-04T09:08:24;-1.80;99.90
46730;DHT22;32476;50.002;11.854;2023-03-04T09:10:52;-1.80;99.90
46730;DHT22;32476;50.002;11.854;2023-03-04T09:13:19;-1.60;99.90
46730;DHT22;32476;50.002;11.854;2023-03-04T09:15:49;-1.50;99.90
46730;DHT22;32476;50.002;11.854;2023-03-04T09:18:17;-1.70;99.90
46730;DHT22;32476;50.002;11.854;2023-03-04T09:20:45;-1.70;99.90
46730;DHT22;32476;50.002;11.854;2023-03-04T09:23:13;-1.60;99.90
46730;DHT22;32476;50.002;11.854;2023-03-04T09:25:43;-1.60;99.90
46730;DHT22;32476;50.002;11.854;2023-03-04T09:28:11;-1.80;99.90
46730;DHT22;32476;50.002;11.854;2023-03-04T09:30:39;-1.70;99.90
46730;DHT22;32476;50.002;11.854;2023-03-04T09:33:05;-1.50;99.90
46730;DHT22;32476;50.002;11.854;2023-03-04T09:35:31;-1.40;99.90
46730;DHT22;32476;50.002;11.854;2023-03-04T09:37:59;-1.30;99.90
46730;DHT22;32476;50.002;11.854;2023-03-04T09:40:32;-1.20;99.90
46730;DHT22;32476;50.002;11.854;2023-03-04T09:43:20;-1.30;99.90
46730;DHT22;32476;50.002;11.854;2023-03-04T09:45:51;-1.10;99.90
46730;DHT22;32476;50.002;11.854;2023-03-04T09:48:23;-1.00;99.90
46730;DHT22;32476;50.002;11.854;2023-03-04T09:53:55;-0.90;99.90
46730;DHT22;32476;50.002;11.854;2023-03-04T09:56:24;-0.70;99.90
46730;DHT22;32476;50.002;11.854;2023-03-04T09:59:08;-0.60;99.90
46730;DHT22;32476;50.002;11.854;2023-03-04T10:02:11;-0.80;99.90
46730;DHT22;32476;50.002;11.854;2023-03-04T10:04:53;-0.60;99.90
46730;DHT22;32476;50.002;11.854;2023-03-04T10:07:26;-0.50;99.90
46730;DHT22;32476;50.002;11.854;2023-03-04T10:10:05;-0.50;99.90
46730;DHT22;32476;50.002;11.854;2023-03-04T10:12:34;-0.40;99.90
46730;DHT22;32476;50.002;11.854;2023-03-04T10:15:26;-0.30;99.90
46730;DHT22;32476;50.002;11.854;2023-03-04T10:18:02;-0.30;99.90
46730;DHT22;32476;50.002;11.854;2023-03-04T10:20:51;-0.40;99.90
46730;DHT22;32476;50.002;11.854;2023-03-04T10:23:21;-0.30;99.90
46730;DHT22;32476;50.002;11.854;2023-03-04T10:25:54;-0.30;99.90
46730;DHT22;32476;50.002;11.854;2023-03-04T10:28:24;-0.30;99.90
46730;DHT22;32476;50.002;11.854;2023-03-04T10:33:35;-0.50;99.90
46730;DHT22;32476;50.002;11.854;2023-03-04T10:38:42;-0.50;99.90
46730;DHT22;32476;50.002;11.854;2023-03-04T10:41:22;-0.40;99.90
46730;DHT22;32476;50.002;11.854;2023-03-04T10:44:15;-0.50;99.90
46730;DHT22;32476;50.002;11.854;2023-03-04T10:46:45;-0.40;99.90
46730;DHT22;32476;50.002;11.854;2023-03-04T10:49:16;-0.50;99.90
46730;DHT22;32476;50.002;11.854;2023-03-04T10:52:14;-0.40;99.90
46730;DHT22;32476;50.002;11.854;2023-03-04T10:54:48;-0.40;99.90
46730;DHT22;32476;50.002;11.854;2023-03-04T10:57:20;-0.40;99.90
46730;DHT22;32476;50.002;11.854;2023-03-04T10:59:55;-0.40;99.90
46730;DHT22;32476;50.002;11.854;2023-03-04T11:07:48;-0.20;99.90
46730;DHT22;32476;50.002;11.854;2023-03-04T11:10:20;-0.20;99.90
46730;DHT22;32476;50.002;11.854;2023-03-04T11:15:56;0.00;99.90
46730;DHT22;32476;50.002;11.854;2023-03-04T11:18:33;0.00;99.90
46730;DHT22;32476;50.002;11.854;2023-03-04T11:21:15;0.00;99.90
46730;DHT22;32476;50.002;11.854;2023-03-04T11:23:51;0.10;99.90
46730;DHT22;32476;50.002;11.854;2023-03-04T11:32:23;0.30;99.90
46730;DHT22;32476;50.002;11.854;2023-03-04T11:35:17;0.10;99.90
46730;DHT22;32476;50.002;11.854;2023-03-04T11:38:07;0.30;99.90
46730;DHT22;32476;50.002;11.854;2023-03-04T11:43:36;0.30;99.90
46730;DHT22;32476;50.002;11.854;2023-03-04T11:48:48;0.30;99.90
46730;DHT22;32476;50.002;11.854;2023-03-04T11:54:39;0.40;99.90
46730;DHT22;32476;50.002;11.854;2023-03-04T12:06:11;0.50;99.90
46730;DHT22;32476;50.002;11.854;2023-03-04T12:12:25;0.60;99.90
46730;DHT22;32476;50.002;11.854;2023-03-04T12:15:16;0.70;99.90
46730;DHT22;32476;50.002;11.854;2023-03-04T12:30:06;0.70;99.90
46730;DHT22;32476;50.002;11.854;2023-03-04T12:33:03;0.70;99.90
46730;DHT22;32476;50.002;11.854;2023-03-04T12:35:52;0.90;99.90
46730;DHT22;32476;50.002;11.854;2023-03-04T12:44:23;0.90;99.90
46730;DHT22;32476;50.002;11.854;2023-03-04T12:47:12;1.00;99.90
46730;DHT22;32476;50.002;11.854;2023-03-04T12:49:59;1.00;99.90
46730;DHT22;32476;50.002;11.854;2023-03-04T12:52:49;1.00;99.90
46730;DHT22;32476;50.002;11.854;2023-03-04T12:55:34;0.80;99.90
46730;DHT22;32476;50.002;11.854;2023-03-04T13:04:14;0.70;99.90
46730;DHT22;32476;50.002;11.854;2023-03-04T13:07:06;0.70;99.90
46730;DHT22;32476;50.002;11.854;2023-03-04T13:09:48;0.60;99.90
46730;DHT22;32476;50.002;11.854;2023-03-04T13:12:19;0.70;99.90
46730;DHT22;32476;50.002;11.854;2023-03-04T13:22:58;0.60;99.90
46730;DHT22;32476;50.002;11.854;2023-03-04T13:25:41;0.30;99.90
46730;DHT22;32476;50.002;11.854;2023-03-04T13:31:03;0.40;99.90
46730;DHT22;32476;50.002;11.854;2023-03-04T13:36:04;0.50;99.90
46730;DHT22;32476;50.002;11.854;2023-03-04T13:38:35;0.50;99.90
46730;DHT22;32476;50.002;11.854;2023-03-04T13:43:42;0.60;99.90
46730;DHT22;32476;50.002;11.854;2023-03-04T13:51:38;0.60;99.90
46730;DHT22;32476;50.002;11.854;2023-03-04T13:54:27;0.50;99.90
46730;DHT22;32476;50.002;11.854;2023-03-04T13:59:49;0.20;99.90
46730;DHT22;32476;50.002;11.854;2023-03-04T14:02:24;0.40;99.90
46730;DHT22;32476;50.002;11.854;2023-03-04T14:04:57;0.30;99.90
46730;DHT22;32476;50.002;11.854;2023-03-04T14:07:30;0.20;99.90
46730;DHT22;32476;50.002;11.854;2023-03-04T14:12:43;0.20;99.90
46730;DHT22;32476;50.002;11.854;2023-03-04T14:15:27;0.20;99.90
46730;DHT22;32476;50.002;11.854;2023-03-04T14:18:01;0.20;99.90
46730;DHT22;32476;50.002;11.854;2023-03-04T14:20:36;0.20;99.90
46730;DHT22;32476;50.002;11.854;2023-03-04T14:23:33;0.20;99.90
46730;DHT22;32476;50.002;11.854;2023-03-04T14:26:12;0.20;99.90
46730;DHT22;32476;50.002;11.854;2023-03-04T14:28:43;0.20;99.90
46730;DHT22;32476;50.002;11.854;2023-03-04T14:31:15;0.20;99.90
46730;DHT22;32476;50.002;11.854;2023-03-04T14:33:50;0.30;99.90
46730;DHT22;32476;50.002;11.854;2023-03-04T14:36:21;0.30;99.90
46730;DHT22;32476;50.002;11.854;2023-03-04T14:38:58;0.30;99.90
46730;DHT22;32476;50.002;11.854;2023-03-04T14:41:35;0.20;99.90
46730;DHT22;32476;50.002;11.854;2023-03-04T14:44:40;0.30;99.90
46730;DHT22;32476;50.002;11.854;2023-03-04T14:47:32;0.20;99.90
46730;DHT22;32476;50.002;11.854;2023-03-04T14:50:09;0.20;99.90
46730;DHT22;32476;50.002;11.854;2023-03-04T14:52:41;0.20;99.90
46730;DHT22;32476;50.002;11.854;2023-03-04T14:57:42;0.20;99.90
46730;DHT22;32476;50.002;11.854;2023-03-04T15:02:53;0.20;99.90
46730;DHT22;32476;50.002;11.854;2023-03-04T15:05:31;0.10;99.90
46730;DHT22;32476;50.002;11.854;2023-03-04T15:07:59;0.10;99.90
46730;DHT22;32476;50.002;11.854;2023-03-04T15:10:33;0.10;99.90
46730;DHT22;32476;50.002;11.854;2023-03-04T15:13:03;0.10;99.90
46730;DHT22;32476;50.002;11.854;2023-03-04T15:20:59;0.20;99.90
46730;DHT22;32476;50.002;11.854;2023-03-04T15:23:27;0.10;99.90
46730;DHT22;32476;50.002;11.854;2023-03-04T15:25:59;0.10;99.90
46730;DHT22;32476;50.002;11.854;2023-03-04T15:28:33;0.20;99.90
46730;DHT22;32476;50.002;11.854;2023-03-04T15:31:03;0.20;99.90
46730;DHT22;32476;50.002;11.854;2023-03-04T15:33:30;0.20;99.90
46730;DHT22;32476;50.002;11.854;2023-03-04T15:35:58;0.20;99.90
46730;DHT22;32476;50.002;11.854;2023-03-04T15:38:28;0.20;99.90
46730;DHT22;32476;50.002;11.854;2023-03-04T15:40:54;0.20;99.90
46730;DHT22;32476;50.002;11.854;2023-03-04T15:43:23;0.20;99.90
46730;DHT22;32476;50.002;11.854;2023-03-04T15:45:51;0.10;99.90
46730;DHT22;32476;50.002;11.854;2023-03-04T15:48:18;0.10;99.90
46730;DHT22;32476;50.002;11.854;2023-03-04T15:50:48;0.10;99.90
46730;DHT22;32476;50.002;11.854;2023-03-04T15:53:36;0.10;99.90
46730;DHT22;32476;50.002;11.854;2023-03-04T15:56:08;0.10;99.90
46730;DHT22;32476;50.002;11.854;2023-03-04T15:58:39;0.00;99.90
46730;DHT22;32476;50.002;11.854;2023-03-04T16:01:05;0.10;99.90
46730;DHT22;32476;50.002;11.854;2023-03-04T16:03:31;0.00;99.90
46730;DHT22;32476;50.002;11.854;2023-03-04T16:05:59;0.00;99.90
46730;DHT22;32476;50.002;11.854;2023-03-04T16:08:25;0.00;99.90
46730;DHT22;32476;50.002;11.854;2023-03-04T16:10:54;0.00;99.90
46730;DHT22;32476;50.002;11.854;2023-03-04T16:13:22;0.10;99.90
46730;DHT22;32476;50.002;11.854;2023-03-04T16:15:49;0.00;99.90
46730;DHT22;32476;50.002;11.854;2023-03-04T16:18:15;0.00;99.90
46730;DHT22;32476;50.002;11.854;2023-03-04T16:20:46;0.10;99.90
46730;DHT22;32476;50.002;11.854;2023-03-04T16:23:16;0.00;99.90
46730;DHT22;32476;50.002;11.854;2023-03-04T16:25:49;0.00;99.90
46730;DHT22;32476;50.002;11.854;2023-03-04T16:28:16;0.00;99.90
46730;DHT22;32476;50.002;11.854;2023-03-04T16:30:42;0.00;99.90
46730;DHT22;32476;50.002;11.854;2023-03-04T16:33:10;0.00;99.90
46730;DHT22;32476;50.002;11.854;2023-03-04T16:35:38;0.00;99.90
46730;DHT22;32476;50.002;11.854;2023-03-04T16:38:11;0.00;99.90
46730;DHT22;32476;50.002;11.854;2023-03-04T16:40:47;0.00;99.90
46730;DHT22;32476;50.002;11.854;2023-03-04T16:43:14;0.00;99.90
46730;DHT22;32476;50.002;11.854;2023-03-04T16:45:40;0.00;99.90
46730;DHT22;32476;50.002;11.854;2023-03-04T16:48:08;0.00;99.90
46730;DHT22;32476;50.002;11.854;2023-03-04T16:50:35;-0.10;99.90
46730;DHT22;32476;50.002;11.854;2023-03-04T16:53:02;-0.10;99.90
46730;DHT22;32476;50.002;11.854;2023-03-04T16:55:31;-0.10;99.90
46730;DHT22;32476;50.002;11.854;2023-03-04T16:57:57;-0.10;99.90
46730;DHT22;32476;50.002;11.854;2023-03-04T17:00:26;-0.10;99.90
46730;DHT22;32476;50.002;11.854;2023-03-04T17:02:59;0.00;99.90
46730;DHT22;32476;50.002;11.854;2023-03-04T17:05:28;0.00;99.90
46730;DHT22;32476;50.002;11.854;2023-03-04T17:07:57;-0.10;99.90
46730;DHT22;32476;50.002;11.854;2023-03-04T17:10:24;-0.10;99.90
46730;DHT22;32476;50.002;11.854;2023-03-04T17:12:51;-0.10;99.90
46730;DHT22;32476;50.002;11.854;2023-03-04T17:15:19;-0.10;99.90
46730;DHT22;32476;50.002;11.854;2023-03-04T17:17:45;-0.10;99.90
46730;DHT22;32476;50.002;11.854;2023-03-04T17:20:14;-0.10;99.90
46730;DHT22;32476;50.002;11.854;2023-03-04T17:22:43;-0.10;99.90
46730;DHT22;32476;50.002;11.854;2023-03-04T17:25:10;-0.10;99.90
46730;DHT22;32476;50.002;11.854;2023-03-04T17:27:37;-0.10;99.90